sensor_id;sensor_type;location;lat;lon;timestamp;P1;durP1;ratioP1;P2;durP2;ratioP2
1959;SDS011;980;43.794;11.212;2023-05-29T00:01:04;22.00;;;21.00;;
1959;SDS011;980;43.794;11.212;2023-05-29T00:03:32;25.50;;;23.50;;
1959;SDS011;980;43.794;11.212;2023-05-29T00:05:58;25.00;;;23.00;;
1959;SDS011;980;43.794;11.212;2023-05-29T00:08:23;22.50;;;21.25;;
1959;SDS011;980;43.794;11.212;2023-05-29T00:10:49;22.00;;;21.00;;
1959;SDS011;980;43.794;11.212;2023-05-29T00:13:14;24.75;;;21.25;;
1959;SDS011;980;43.794;11.212;2023-05-29T00:15:39;21.00;;;20.50;;
1959;SDS011;980;43.794;11.212;2023-05-29T00:18:05;22.75;;;22.75;;
1959;SDS011;980;43.794;11.212;2023-05-29T00:20:30;10.75;;;7.50;;
1959;SDS011;980;43.794;11.212;2023-05-29T00:22:59;21.25;;;21.25;;
1959;SDS011;980;43.794;11.212;2023-05-29T00:25:24;27.00;;;22.00;;
1959;SDS011;980;43.794;11.212;2023-05-29T00:27:49;20.00;;;20.00;;
1959;SDS011;980;43.794;11.212;2023-05-29T00:30:14;21.50;;;18.00;;
1959;SDS011;980;43.794;11.212;2023-05-29T00:32:40;21.50;;;21.00;;
1959;SDS011;980;43.794;11.212;2023-05-29T00:35:06;25.00;;;21.50;;
1959;SDS011;980;43.794;11.212;2023-05-29T00:37:31;20.75;;;19.00;;
1959;SDS011;980;43.794;11.212;2023-05-29T00:39:57;22.00;;;20.00;;
1959;SDS011;980;43.794;11.212;2023-05-29T00:42:22;17.50;;;17.50;;
1959;SDS011;980;43.794;11.212;2023-05-29T00:44:47;20.75;;;20.00;;
1959;SDS011;980;43.794;11.212;2023-05-29T00:47:12;16.50;;;16.50;;
1959;SDS011;980;43.794;11.212;2023-05-29T11:15:43;6.50;;;6.50;;
1959;SDS011;980;43.794;11.212;2023-05-29T11:18:08;10.00;;;7.00;;
1959;SDS011;980;43.794;11.212;2023-05-29T11:20:43;5.00;;;3.75;;
1959;SDS011;980;43.794;11.212;2023-05-29T11:23:08;8.00;;;6.00;;
1959;SDS011;980;43.794;11.212;2023-05-29T11:25:41;8.25;;;7.00;;
1959;SDS011;980;43.794;11.212;2023-05-29T11:28:09;7.75;;;7.00;;
1959;SDS011;980;43.794;11.212;2023-05-29T11:30:45;8.50;;;7.25;;
1959;SDS011;980;43.794;11.212;2023-05-29T11:33:18;7.00;;;7.00;;
1959;SDS011;980;43.794;11.212;2023-05-29T11:35:44;7.25;;;7.00;;
1959;SDS011;980;43.794;11.212;2023-05-29T11:38:10;7.75;;;7.25;;
1959;SDS011;980;43.794;11.212;2023-05-29T11:40:36;10.00;;;8.00;;
1959;SDS011;980;43.794;11.212;2023-05-29T11:43:02;6.00;;;6.00;;
1959;SDS011;980;43.794;11.212;2023-05-29T11:45:31;6.33;;;4.67;;
1959;SDS011;980;43.794;11.212;2023-05-29T11:47:57;8.75;;;7.50;;
1959;SDS011;980;43.794;11.212;2023-05-29T11:50:31;8.00;;;7.75;;
1959;SDS011;980;43.794;11.212;2023-05-29T11:52:57;9.00;;;8.00;;
1959;SDS011;980;43.794;11.212;2023-05-29T11:55:23;8.00;;;8.00;;
1959;SDS011;980;43.794;11.212;2023-05-29T11:57:49;11.50;;;9.00;;
1959;SDS011;980;43.794;11.212;2023-05-29T12:00:15;10.25;;;9.00;;
1959;SDS011;980;43.794;11.212;2023-05-29T12:02:41;10.25;;;7.00;;
1959;SDS011;980;43.794;11.212;2023-05-29T12:05:12;10.50;;;9.00;;
1959;SDS011;980;43.794;11.212;2023-05-29T12:07:46;7.50;;;7.50;;
1959;SDS011;980;43.794;11.212;2023-05-29T12:10:11;9.00;;;9.00;;
1959;SDS011;980;43.794;11.212;2023-05-29T12:12:37;7.67;;;6.00;;
1959;SDS011;980;43.794;11.212;2023-05-29T12:15:04;6.00;;;6.00;;
1959;SDS011;980;43.794;11.212;2023-05-29T12:17:31;8.50;;;8.50;;
1959;SDS011;980;43.794;11.212;2023-05-29T12:19:57;11.00;;;7.00;;
1959;SDS011;980;43.794;11.212;2023-05-29T12:22:35;10.67;;;9.00;;
1959;SDS011;980;43.794;11.212;2023-05-29T12:25:05;10.00;;;8.25;;
1959;SDS011;980;43.794;11.212;2023-05-29T12:27:31;10.50;;;8.75;;
1959;SDS011;980;43.794;11.212;2023-05-29T12:29:59;12.00;;;8.67;;
1959;SDS011;980;43.794;11.212;2023-05-29T12:32:33;7.50;;;7.25;;
1959;SDS011;980;43.794;11.212;2023-05-29T12:34:58;10.75;;;10.75;;
1959;SDS011;980;43.794;11.212;2023-05-29T12:37:24;11.67;;;8.67;;
1959;SDS011;980;43.794;11.212;2023-05-29T12:40:09;9.67;;;9.67;;
1959;SDS011;980;43.794;11.212;2023-05-29T12:42:34;8.25;;;8.25;;
1959;SDS011;980;43.794;11.212;2023-05-29T12:45:01;6.33;;;6.00;;
1959;SDS011;980;43.794;11.212;2023-05-29T12:47:26;5.75;;;5.75;;
1959;SDS011;980;43.794;11.212;2023-05-29T12:49:51;8.33;;;8.33;;
1959;SDS011;980;43.794;11.212;2023-05-29T12:52:19;8.33;;;8.00;;
1959;SDS011;980;43.794;11.212;2023-05-29T12:54:45;11.00;;;8.00;;
1959;SDS011;980;43.794;11.212;2023-05-29T12:57:10;9.00;;;8.00;;
1959;SDS011;980;43.794;11.212;2023-05-29T12:59:35;8.67;;;8.00;;
1959;SDS011;980;43.794;11.212;2023-05-29T13:02:01;8.67;;;8.67;;
1959;SDS011;980;43.794;11.212;2023-05-29T13:04:26;9.67;;;8.00;;
1959;SDS011;980;43.794;11.212;2023-05-29T13:06:52;13.00;;;13.00;;
1959;SDS011;980;43.794;11.212;2023-05-29T13:09:17;11.00;;;11.00;;
1959;SDS011;980;43.794;11.212;2023-05-29T13:11:42;9.00;;;8.33;;
1959;SDS011;980;43.794;11.212;2023-05-29T13:14:07;12.00;;;8.33;;
1959;SDS011;980;43.794;11.212;2023-05-29T13:16:33;8.00;;;8.00;;
1959;SDS011;980;43.794;11.212;2023-05-29T13:18:58;12.00;;;9.67;;
1959;SDS011;980;43.794;11.212;2023-05-29T13:21:23;10.33;;;8.33;;
1959;SDS011;980;43.794;11.212;2023-05-29T13:23:48;12.00;;;10.33;;
1959;SDS011;980;43.794;11.212;2023-05-29T13:26:14;11.00;;;11.00;;
1959;SDS011;980;43.794;11.212;2023-05-29T13:28:39;9.00;;;8.00;;
1959;SDS011;980;43.794;11.212;2023-05-29T13:31:04;11.67;;;11.33;;
1959;SDS011;980;43.794;11.212;2023-05-29T13:33:30;11.33;;;11.00;;
1959;SDS011;980;43.794;11.212;2023-05-29T13:35:55;11.33;;;10.33;;
1959;SDS011;980;43.794;11.212;2023-05-29T13:38:20;13.33;;;12.67;;
1959;SDS011;980;43.794;11.212;2023-05-29T13:40:45;13.00;;;12.00;;
1959;SDS011;980;43.794;11.212;2023-05-29T13:43:11;12.33;;;11.00;;
1959;SDS011;980;43.794;11.212;2023-05-29T13:45:36;12.67;;;12.33;;
1959;SDS011;980;43.794;11.212;2023-05-29T13:48:01;11.33;;;10.33;;
1959;SDS011;980;43.794;11.212;2023-05-29T13:50:27;10.33;;;7.33;;
1959;SDS011;980;43.794;11.212;2023-05-29T13:52:52;10.00;;;10.00;;
1959;SDS011;980;43.794;11.212;2023-05-29T13:55:17;12.67;;;10.33;;
1959;SDS011;980;43.794;11.212;2023-05-29T13:57:43;12.00;;;11.67;;
1959;SDS011;980;43.794;11.212;2023-05-29T14:00:11;11.00;;;10.00;;
1959;SDS011;980;43.794;11.212;2023-05-29T14:02:37;13.75;;;12.75;;
1959;SDS011;980;43.794;11.212;2023-05-29T14:05:02;11.00;;;11.00;;
1959;SDS011;980;43.794;11.212;2023-05-29T14:07:31;13.00;;;11.33;;
1959;SDS011;980;43.794;11.212;2023-05-29T14:09:56;12.50;;;12.50;;
1959;SDS011;980;43.794;11.212;2023-05-29T14:12:21;12.33;;;9.67;;
1959;SDS011;980;43.794;11.212;2023-05-29T14:14:47;11.00;;;10.67;;
1959;SDS011;980;43.794;11.212;2023-05-29T14:17:13;13.33;;;11.67;;
1959;SDS011;980;43.794;11.212;2023-05-29T14:19:38;13.25;;;10.50;;
1959;SDS011;980;43.794;11.212;2023-05-29T14:22:04;16.00;;;11.67;;
1959;SDS011;980;43.794;11.212;2023-05-29T14:24:29;12.67;;;10.33;;
1959;SDS011;980;43.794;11.212;2023-05-29T14:26:54;13.67;;;12.67;;
1959;SDS011;980;43.794;11.212;2023-05-29T14:29:20;10.33;;;9.33;;
1959;SDS011;980;43.794;11.212;2023-05-29T14:31:45;12.33;;;10.33;;
1959;SDS011;980;43.794;11.212;2023-05-29T14:34:11;11.00;;;11.00;;
1959;SDS011;980;43.794;11.212;2023-05-29T14:36:37;11.50;;;9.00;;
1959;SDS011;980;43.794;11.212;2023-05-29T14:39:05;19.00;;;14.67;;
1959;SDS011;980;43.794;11.212;2023-05-29T14:41:31;8.00;;;8.00;;
1959;SDS011;980;43.794;11.212;2023-05-29T14:43:56;11.00;;;11.00;;
1959;SDS011;980;43.794;11.212;2023-05-29T14:46:27;14.00;;;13.00;;
1959;SDS011;980;43.794;11.212;2023-05-29T14:48:56;11.75;;;10.25;;
1959;SDS011;980;43.794;11.212;2023-05-29T14:51:21;9.33;;;9.33;;
1959;SDS011;980;43.794;11.212;2023-05-29T14:53:48;10.75;;;10.75;;
1959;SDS011;980;43.794;11.212;2023-05-29T14:56:13;10.67;;;10.67;;
1959;SDS011;980;43.794;11.212;2023-05-29T14:58:38;8.00;;;6.33;;
1959;SDS011;980;43.794;11.212;2023-05-29T15:01:04;6.00;;;6.00;;
1959;SDS011;980;43.794;11.212;2023-05-29T15:03:29;16.00;;;12.67;;
1959;SDS011;980;43.794;11.212;2023-05-29T15:05:54;11.67;;;11.00;;
1959;SDS011;980;43.794;11.212;2023-05-29T15:08:20;12.00;;;11.00;;
1959;SDS011;980;43.794;11.212;2023-05-29T15:10:45;11.33;;;11.33;;
1959;SDS011;980;43.794;11.212;2023-05-29T15:13:10;11.67;;;11.00;;
1959;SDS011;980;43.794;11.212;2023-05-29T15:15:35;15.00;;;10.00;;
1959;SDS011;980;43.794;11.212;2023-05-29T15:18:01;10.00;;;7.67;;
1959;SDS011;980;43.794;11.212;2023-05-29T15:20:26;8.33;;;7.00;;
1959;SDS011;980;43.794;11.212;2023-05-29T15:22:52;9.33;;;9.33;;
1959;SDS011;980;43.794;11.212;2023-05-29T15:25:18;9.00;;;8.00;;
1959;SDS011;980;43.794;11.212;2023-05-29T15:27:43;9.00;;;8.00;;
1959;SDS011;980;43.794;11.212;2023-05-29T15:30:10;9.67;;;8.00;;
1959;SDS011;980;43.794;11.212;2023-05-29T15:32:35;9.50;;;9.50;;
1959;SDS011;980;43.794;11.212;2023-05-29T15:35:00;10.33;;;10.33;;
1959;SDS011;980;43.794;11.212;2023-05-29T15:37:26;12.00;;;8.00;;
1959;SDS011;980;43.794;11.212;2023-05-29T15:39:51;11.67;;;9.00;;
1959;SDS011;980;43.794;11.212;2023-05-29T15:42:16;10.33;;;9.00;;
1959;SDS011;980;43.794;11.212;2023-05-29T15:44:41;12.33;;;8.33;;
1959;SDS011;980;43.794;11.212;2023-05-29T15:47:07;12.67;;;11.00;;
1959;SDS011;980;43.794;11.212;2023-05-29T15:49:32;8.00;;;6.00;;
1959;SDS011;980;43.794;11.212;2023-05-29T15:51:58;12.00;;;9.67;;
1959;SDS011;980;43.794;11.212;2023-05-29T15:54:23;11.00;;;11.00;;
1959;SDS011;980;43.794;11.212;2023-05-29T15:56:48;11.33;;;7.67;;
1959;SDS011;980;43.794;11.212;2023-05-29T15:59:14;8.67;;;8.33;;
1959;SDS011;980;43.794;11.212;2023-05-29T16:01:39;11.33;;;10.00;;
1959;SDS011;980;43.794;11.212;2023-05-29T16:04:04;15.00;;;10.67;;
1959;SDS011;980;43.794;11.212;2023-05-29T16:06:31;11.25;;;9.75;;
1959;SDS011;980;43.794;11.212;2023-05-29T16:08:57;13.67;;;12.00;;
1959;SDS011;980;43.794;11.212;2023-05-29T16:11:22;11.33;;;9.33;;
1959;SDS011;980;43.794;11.212;2023-05-29T16:13:48;11.67;;;10.00;;
1959;SDS011;980;43.794;11.212;2023-05-29T16:16:13;12.33;;;10.00;;
1959;SDS011;980;43.794;11.212;2023-05-29T16:18:38;15.00;;;13.00;;
1959;SDS011;980;43.794;11.212;2023-05-29T16:21:03;8.00;;;8.00;;
1959;SDS011;980;43.794;11.212;2023-05-29T16:23:29;12.33;;;11.67;;
1959;SDS011;980;43.794;11.212;2023-05-29T16:25:54;13.00;;;9.33;;
1959;SDS011;980;43.794;11.212;2023-05-29T16:28:19;12.00;;;8.67;;
1959;SDS011;980;43.794;11.212;2023-05-29T16:30:45;11.00;;;8.67;;
1959;SDS011;980;43.794;11.212;2023-05-29T16:33:10;11.00;;;11.00;;
1959;SDS011;980;43.794;11.212;2023-05-29T16:35:37;10.50;;;9.50;;
1959;SDS011;980;43.794;11.212;2023-05-29T16:38:02;13.33;;;10.33;;
1959;SDS011;980;43.794;11.212;2023-05-29T16:40:27;11.33;;;8.00;;
1959;SDS011;980;43.794;11.212;2023-05-29T16:42:53;11.33;;;9.33;;
1959;SDS011;980;43.794;11.212;2023-05-29T16:45:18;11.33;;;11.00;;
1959;SDS011;980;43.794;11.212;2023-05-29T16:47:43;11.00;;;7.67;;
1959;SDS011;980;43.794;11.212;2023-05-29T16:50:08;10.00;;;10.00;;
1959;SDS011;980;43.794;11.212;2023-05-29T16:52:34;10.33;;;10.33;;
1959;SDS011;980;43.794;11.212;2023-05-29T16:55:00;11.67;;;6.67;;
1959;SDS011;980;43.794;11.212;2023-05-29T16:57:27;13.75;;;10.50;;
1959;SDS011;980;43.794;11.212;2023-05-29T16:59:53;14.00;;;11.50;;
1959;SDS011;980;43.794;11.212;2023-05-29T17:02:18;9.00;;;7.33;;
1959;SDS011;980;43.794;11.212;2023-05-29T17:04:44;8.00;;;8.00;;
1959;SDS011;980;43.794;11.212;2023-05-29T17:07:10;12.67;;;10.00;;
1959;SDS011;980;43.794;11.212;2023-05-29T17:09:35;11.50;;;8.50;;
1959;SDS011;980;43.794;11.212;2023-05-29T17:12:00;11.00;;;10.00;;
1959;SDS011;980;43.794;11.212;2023-05-29T17:14:26;9.75;;;8.25;;
1959;SDS011;980;43.794;11.212;2023-05-29T17:16:52;11.00;;;10.00;;
1959;SDS011;980;43.794;11.212;2023-05-29T17:19:17;10.67;;;10.33;;
1959;SDS011;980;43.794;11.212;2023-05-29T17:21:42;8.00;;;8.00;;
1959;SDS011;980;43.794;11.212;2023-05-29T17:24:09;11.00;;;10.00;;
1959;SDS011;980;43.794;11.212;2023-05-29T17:26:34;10.00;;;9.00;;
1959;SDS011;980;43.794;11.212;2023-05-29T17:28:59;9.67;;;9.67;;
1959;SDS011;980;43.794;11.212;2023-05-29T17:31:24;13.33;;;10.67;;
1959;SDS011;980;43.794;11.212;2023-05-29T17:33:50;11.00;;;10.33;;
1959;SDS011;980;43.794;11.212;2023-05-29T17:36:15;13.67;;;11.00;;
1959;SDS011;980;43.794;11.212;2023-05-29T17:38:40;8.33;;;7.00;;
1959;SDS011;980;43.794;11.212;2023-05-29T17:41:05;10.67;;;9.67;;
1959;SDS011;980;43.794;11.212;2023-05-29T17:43:31;14.00;;;12.67;;
1959;SDS011;980;43.794;11.212;2023-05-29T17:45:57;24.75;;;24.75;;
1959;SDS011;980;43.794;11.212;2023-05-29T17:48:23;15.67;;;15.00;;
1959;SDS011;980;43.794;11.212;2023-05-29T17:50:49;11.00;;;10.33;;
1959;SDS011;980;43.794;11.212;2023-05-29T17:53:14;9.00;;;9.00;;
1959;SDS011;980;43.794;11.212;2023-05-29T17:55:41;10.00;;;9.00;;
1959;SDS011;980;43.794;11.212;2023-05-29T17:58:06;13.00;;;11.50;;
1959;SDS011;980;43.794;11.212;2023-05-29T18:00:33;12.00;;;12.00;;
1959;SDS011;980;43.794;11.212;2023-05-29T18:02:58;11.00;;;11.00;;
1959;SDS011;980;43.794;11.212;2023-05-29T18:05:23;12.00;;;11.00;;
1959;SDS011;980;43.794;11.212;2023-05-29T18:07:49;11.00;;;9.67;;
1959;SDS011;980;43.794;11.212;2023-05-29T18:10:14;12.00;;;10.00;;
1959;SDS011;980;43.794;11.212;2023-05-29T18:12:45;11.00;;;9.00;;
1959;SDS011;980;43.794;11.212;2023-05-29T18:15:11;10.00;;;10.00;;
1959;SDS011;980;43.794;11.212;2023-05-29T18:17:36;11.67;;;10.67;;
1959;SDS011;980;43.794;11.212;2023-05-29T18:20:01;11.67;;;10.67;;
1959;SDS011;980;43.794;11.212;2023-05-29T18:22:27;11.33;;;11.33;;
1959;SDS011;980;43.794;11.212;2023-05-29T18:24:52;13.33;;;11.00;;
1959;SDS011;980;43.794;11.212;2023-05-29T18:27:18;15.00;;;12.33;;
1959;SDS011;980;43.794;11.212;2023-05-29T18:29:43;11.33;;;10.33;;
1959;SDS011;980;43.794;11.212;2023-05-29T18:32:08;14.00;;;13.33;;
1959;SDS011;980;43.794;11.212;2023-05-29T18:34:34;12.00;;;11.00;;
1959;SDS011;980;43.794;11.212;2023-05-29T18:37:01;13.00;;;10.00;;
1959;SDS011;980;43.794;11.212;2023-05-29T18:39:26;11.00;;;9.00;;
1959;SDS011;980;43.794;11.212;2023-05-29T18:41:51;15.00;;;14.00;;
1959;SDS011;980;43.794;11.212;2023-05-29T18:44:16;24.00;;;22.25;;
1959;SDS011;980;43.794;11.212;2023-05-29T18:46:42;18.00;;;15.33;;
1959;SDS011;980;43.794;11.212;2023-05-29T18:49:07;16.00;;;14.67;;
1959;SDS011;980;43.794;11.212;2023-05-29T18:51:32;12.33;;;12.00;;
1959;SDS011;980;43.794;11.212;2023-05-29T18:53:58;12.00;;;11.00;;
1959;SDS011;980;43.794;11.212;2023-05-29T18:56:24;15.67;;;11.00;;
1959;SDS011;980;43.794;11.212;2023-05-29T18:58:49;15.33;;;13.00;;
1959;SDS011;980;43.794;11.212;2023-05-29T19:01:15;13.33;;;11.33;;
1959;SDS011;980;43.794;11.212;2023-05-29T19:03:40;15.67;;;13.33;;
1959;SDS011;980;43.794;11.212;2023-05-29T19:06:05;12.67;;;11.00;;
1959;SDS011;980;43.794;11.212;2023-05-29T19:08:31;14.00;;;13.75;;
1959;SDS011;980;43.794;11.212;2023-05-29T19:10:57;15.67;;;15.67;;
1959;SDS011;980;43.794;11.212;2023-05-29T19:13:22;12.67;;;12.67;;
1959;SDS011;980;43.794;11.212;2023-05-29T19:15:47;17.00;;;14.00;;
1959;SDS011;980;43.794;11.212;2023-05-29T19:18:12;20.00;;;18.00;;
1959;SDS011;980;43.794;11.212;2023-05-29T19:20:38;13.00;;;12.67;;
1959;SDS011;980;43.794;11.212;2023-05-29T19:23:04;14.67;;;12.00;;
1959;SDS011;980;43.794;11.212;2023-05-29T19:25:29;12.00;;;12.00;;
1959;SDS011;980;43.794;11.212;2023-05-29T19:27:54;14.33;;;13.00;;
1959;SDS011;980;43.794;11.212;2023-05-29T19:30:20;16.00;;;13.00;;
1959;SDS011;980;43.794;11.212;2023-05-29T19:32:46;27.75;;;27.25;;
1959;SDS011;980;43.794;11.212;2023-05-29T19:35:11;12.67;;;10.67;;
1959;SDS011;980;43.794;11.212;2023-05-29T19:37:37;13.00;;;13.00;;
1959;SDS011;980;43.794;11.212;2023-05-29T19:40:03;12.67;;;12.00;;
1959;SDS011;980;43.794;11.212;2023-05-29T19:42:28;15.67;;;13.00;;
1959;SDS011;980;43.794;11.212;2023-05-29T19:44:53;11.33;;;10.33;;
1959;SDS011;980;43.794;11.212;2023-05-29T19:47:22;12.00;;;10.00;;
1959;SDS011;980;43.794;11.212;2023-05-29T19:49:48;11.67;;;11.67;;
1959;SDS011;980;43.794;11.212;2023-05-29T19:52:13;11.00;;;11.00;;
1959;SDS011;980;43.794;11.212;2023-05-29T19:54:39;9.00;;;9.00;;
1959;SDS011;980;43.794;11.212;2023-05-29T19:57:04;13.00;;;13.00;;
1959;SDS011;980;43.794;11.212;2023-05-29T19:59:30;10.00;;;10.00;;
1959;SDS011;980;43.794;11.212;2023-05-29T20:01:56;11.67;;;10.67;;
1959;SDS011;980;43.794;11.212;2023-05-29T20:04:22;15.00;;;12.67;;
1959;SDS011;980;43.794;11.212;2023-05-29T20:06:47;13.00;;;12.00;;
1959;SDS011;980;43.794;11.212;2023-05-29T20:09:12;13.67;;;13.00;;
1959;SDS011;980;43.794;11.212;2023-05-29T20:11:38;11.33;;;10.67;;
1959;SDS011;980;43.794;11.212;2023-05-29T20:14:03;16.00;;;14.00;;
1959;SDS011;980;43.794;11.212;2023-05-29T20:16:28;14.00;;;13.00;;
1959;SDS011;980;43.794;11.212;2023-05-29T20:18:54;12.00;;;12.00;;
1959;SDS011;980;43.794;11.212;2023-05-29T20:21:19;13.00;;;11.50;;
1959;SDS011;980;43.794;11.212;2023-05-29T20:23:44;14.00;;;11.00;;
1959;SDS011;980;43.794;11.212;2023-05-29T20:26:10;13.00;;;13.00;;
1959;SDS011;980;43.794;11.212;2023-05-29T20:28:36;15.75;;;14.75;;
1959;SDS011;980;43.794;11.212;2023-05-29T20:31:02;15.75;;;12.25;;
1959;SDS011;980;43.794;11.212;2023-05-29T20:33:27;15.25;;;13.25;;
1959;SDS011;980;43.794;11.212;2023-05-29T20:35:52;12.50;;;11.50;;
1959;SDS011;980;43.794;11.212;2023-05-29T20:38:17;13.25;;;12.25;;
1959;SDS011;980;43.794;11.212;2023-05-29T20:40:44;13.50;;;13.00;;
1959;SDS011;980;43.794;11.212;2023-05-29T20:43:10;12.25;;;12.25;;
1959;SDS011;980;43.794;11.212;2023-05-29T20:45:36;15.50;;;13.00;;
1959;SDS011;980;43.794;11.212;2023-05-29T20:48:04;15.00;;;13.75;;
1959;SDS011;980;43.794;11.212;2023-05-29T20:50:30;13.00;;;13.00;;
1959;SDS011;980;43.794;11.212;2023-05-29T20:52:56;15.00;;;12.33;;
1959;SDS011;980;43.794;11.212;2023-05-29T20:55:21;11.00;;;10.67;;
1959;SDS011;980;43.794;11.212;2023-05-29T20:57:46;12.00;;;11.00;;
1959;SDS011;980;43.794;11.212;2023-05-29T21:00:12;12.00;;;10.50;;
1959;SDS011;980;43.794;11.212;2023-05-29T21:02:40;12.75;;;11.50;;
1959;SDS011;980;43.794;11.212;2023-05-29T21:05:06;13.75;;;13.00;;
1959;SDS011;980;43.794;11.212;2023-05-29T21:07:36;11.00;;;11.00;;
1959;SDS011;980;43.794;11.212;2023-05-29T21:10:03;15.00;;;13.25;;
1959;SDS011;980;43.794;11.212;2023-05-29T21:12:28;14.75;;;13.75;;
1959;SDS011;980;43.794;11.212;2023-05-29T21:14:53;13.75;;;13.75;;
1959;SDS011;980;43.794;11.212;2023-05-29T21:17:19;15.00;;;13.75;;
1959;SDS011;980;43.794;11.212;2023-05-29T21:19:44;20.00;;;16.00;;
1959;SDS011;980;43.794;11.212;2023-05-29T21:22:10;16.50;;;15.00;;
1959;SDS011;980;43.794;11.212;2023-05-29T21:24:35;13.00;;;13.00;;
1959;SDS011;980;43.794;11.212;2023-05-29T21:27:00;12.75;;;12.75;;
1959;SDS011;980;43.794;11.212;2023-05-29T21:29:27;11.50;;;11.50;;
1959;SDS011;980;43.794;11.212;2023-05-29T21:31:52;12.50;;;12.50;;
1959;SDS011;980;43.794;11.212;2023-05-29T21:34:19;13.00;;;13.00;;
1959;SDS011;980;43.794;11.212;2023-05-29T21:36:44;14.00;;;13.50;;
1959;SDS011;980;43.794;11.212;2023-05-29T21:39:10;12.25;;;12.25;;
1959;SDS011;980;43.794;11.212;2023-05-29T21:41:35;12.25;;;10.75;;
1959;SDS011;980;43.794;11.212;2023-05-29T21:44:01;14.75;;;12.00;;
1959;SDS011;980;43.794;11.212;2023-05-29T21:46:26;16.00;;;13.00;;
1959;SDS011;980;43.794;11.212;2023-05-29T21:48:51;14.25;;;13.00;;
1959;SDS011;980;43.794;11.212;2023-05-29T21:51:17;15.50;;;12.75;;
1959;SDS011;980;43.794;11.212;2023-05-29T21:53:42;11.75;;;11.75;;
1959;SDS011;980;43.794;11.212;2023-05-29T21:56:07;12.50;;;12.50;;
1959;SDS011;980;43.794;11.212;2023-05-29T21:58:33;15.75;;;15.50;;
1959;SDS011;980;43.794;11.212;2023-05-29T22:00:58;18.25;;;13.50;;
1959;SDS011;980;43.794;11.212;2023-05-29T22:03:23;14.00;;;12.00;;
1959;SDS011;980;43.794;11.212;2023-05-29T22:05:48;14.25;;;13.75;;
1959;SDS011;980;43.794;11.212;2023-05-29T22:08:14;12.50;;;11.75;;
1959;SDS011;980;43.794;11.212;2023-05-29T22:10:39;13.00;;;13.00;;
